sensor_id;sensor_type;location;lat;lon;timestamp;P1;durP1;ratioP1;P2;durP2;ratioP2
5608;SDS011;2826;51.354;9.588;2022-12-07T00:01:24;16.37;;;9.10;;
5608;SDS011;2826;51.354;9.588;2022-12-07T00:03:54;17.77;;;9.57;;
5608;SDS011;2826;51.354;9.588;2022-12-07T00:06:26;16.17;;;8.63;;
5608;SDS011;2826;51.354;9.588;2022-12-07T00:08:53;18.23;;;9.33;;
5608;SDS011;2826;51.354;9.588;2022-12-07T00:11:20;18.53;;;9.67;;
5608;SDS011;2826;51.354;9.588;2022-12-07T00:13:50;16.30;;;9.10;;
5608;SDS011;2826;51.354;9.588;2022-12-07T00:16:19;20.90;;;10.10;;
5608;SDS011;2826;51.354;9.588;2022-12-07T00:18:47;20.17;;;9.57;;
5608;SDS011;2826;51.354;9.588;2022-12-07T00:21:16;17.60;;;8.80;;
5608;SDS011;2826;51.354;9.588;2022-12-07T00:23:45;18.30;;;9.20;;
5608;SDS011;2826;51.354;9.588;2022-12-07T00:26:14;23.20;;;10.10;;
5608;SDS011;2826;51.354;9.588;2022-12-07T00:28:44;18.80;;;10.70;;
5608;SDS011;2826;51.354;9.588;2022-12-07T00:31:12;24.30;;;12.23;;
5608;SDS011;2826;51.354;9.588;2022-12-07T00:33:40;24.47;;;12.27;;
5608;SDS011;2826;51.354;9.588;2022-12-07T00:36:07;19.00;;;10.53;;
5608;SDS011;2826;51.354;9.588;2022-12-07T00:38:38;24.27;;;12.73;;
5608;SDS011;2826;51.354;9.588;2022-12-07T00:41:09;23.73;;;12.83;;
5608;SDS011;2826;51.354;9.588;2022-12-07T00:43:38;22.07;;;10.73;;
5608;SDS011;2826;51.354;9.588;2022-12-07T00:46:05;25.83;;;13.20;;
5608;SDS011;2826;51.354;9.588;2022-12-07T00:48:32;26.17;;;14.00;;
5608;SDS011;2826;51.354;9.588;2022-12-07T00:51:00;26.13;;;12.20;;
5608;SDS011;2826;51.354;9.588;2022-12-07T00:53:26;27.90;;;13.43;;
5608;SDS011;2826;51.354;9.588;2022-12-07T00:55:55;33.50;;;14.80;;
5608;SDS011;2826;51.354;9.588;2022-12-07T00:58:22;26.83;;;13.20;;
5608;SDS011;2826;51.354;9.588;2022-12-07T01:00:49;22.90;;;12.93;;
5608;SDS011;2826;51.354;9.588;2022-12-07T01:03:16;25.50;;;12.50;;
5608;SDS011;2826;51.354;9.588;2022-12-07T01:05:50;27.23;;;11.57;;
5608;SDS011;2826;51.354;9.588;2022-12-07T01:08:18;28.60;;;13.37;;
5608;SDS011;2826;51.354;9.588;2022-12-07T01:10:46;27.33;;;12.93;;
5608;SDS011;2826;51.354;9.588;2022-12-07T01:13:15;27.30;;;13.83;;
5608;SDS011;2826;51.354;9.588;2022-12-07T01:15:43;30.17;;;14.30;;
5608;SDS011;2826;51.354;9.588;2022-12-07T01:18:10;33.27;;;13.27;;
5608;SDS011;2826;51.354;9.588;2022-12-07T01:20:37;30.77;;;14.70;;
5608;SDS011;2826;51.354;9.588;2022-12-07T01:23:04;32.27;;;14.37;;
5608;SDS011;2826;51.354;9.588;2022-12-07T01:25:31;29.40;;;13.10;;
5608;SDS011;2826;51.354;9.588;2022-12-07T01:27:58;31.60;;;14.27;;
5608;SDS011;2826;51.354;9.588;2022-12-07T01:30:26;29.60;;;14.80;;
5608;SDS011;2826;51.354;9.588;2022-12-07T01:32:53;34.77;;;16.10;;
5608;SDS011;2826;51.354;9.588;2022-12-07T01:35:21;33.33;;;14.37;;
5608;SDS011;2826;51.354;9.588;2022-12-07T01:37:48;27.27;;;13.53;;
5608;SDS011;2826;51.354;9.588;2022-12-07T01:40:15;29.20;;;14.40;;
5608;SDS011;2826;51.354;9.588;2022-12-07T01:42:42;38.63;;;15.03;;
5608;SDS011;2826;51.354;9.588;2022-12-07T01:48:10;41.23;;;15.67;;
5608;SDS011;2826;51.354;9.588;2022-12-07T01:50:40;30.27;;;14.63;;
5608;SDS011;2826;51.354;9.588;2022-12-07T01:53:10;30.33;;;13.63;;
5608;SDS011;2826;51.354;9.588;2022-12-07T01:55:40;37.57;;;16.10;;
5608;SDS011;2826;51.354;9.588;2022-12-07T01:58:10;29.63;;;14.33;;
5608;SDS011;2826;51.354;9.588;2022-12-07T02:00:38;35.23;;;16.00;;
5608;SDS011;2826;51.354;9.588;2022-12-07T02:03:09;32.23;;;15.37;;
5608;SDS011;2826;51.354;9.588;2022-12-07T02:05:41;37.30;;;17.53;;
5608;SDS011;2826;51.354;9.588;2022-12-07T02:08:09;34.77;;;15.20;;
5608;SDS011;2826;51.354;9.588;2022-12-07T02:10:38;34.70;;;14.70;;
5608;SDS011;2826;51.354;9.588;2022-12-07T02:13:06;38.40;;;16.50;;
5608;SDS011;2826;51.354;9.588;2022-12-07T02:15:43;38.13;;;17.90;;
5608;SDS011;2826;51.354;9.588;2022-12-07T02:18:23;39.77;;;17.77;;
5608;SDS011;2826;51.354;9.588;2022-12-07T02:21:00;37.77;;;17.00;;
5608;SDS011;2826;51.354;9.588;2022-12-07T02:23:41;41.60;;;18.80;;
5608;SDS011;2826;51.354;9.588;2022-12-07T02:29:57;42.93;;;18.80;;
5608;SDS011;2826;51.354;9.588;2022-12-07T02:32:27;43.07;;;17.60;;
5608;SDS011;2826;51.354;9.588;2022-12-07T02:35:08;36.17;;;14.97;;
5608;SDS011;2826;51.354;9.588;2022-12-07T02:37:39;41.77;;;17.97;;
5608;SDS011;2826;51.354;9.588;2022-12-07T02:40:11;47.00;;;19.70;;
5608;SDS011;2826;51.354;9.588;2022-12-07T02:42:44;41.57;;;18.47;;
5608;SDS011;2826;51.354;9.588;2022-12-07T02:45:18;48.37;;;21.13;;
5608;SDS011;2826;51.354;9.588;2022-12-07T02:47:53;43.17;;;18.30;;
5608;SDS011;2826;51.354;9.588;2022-12-07T02:50:24;52.90;;;20.20;;
5608;SDS011;2826;51.354;9.588;2022-12-07T02:52:51;44.63;;;18.83;;
5608;SDS011;2826;51.354;9.588;2022-12-07T02:55:19;88.73;;;19.57;;
5608;SDS011;2826;51.354;9.588;2022-12-07T02:57:53;62.53;;;21.40;;
5608;SDS011;2826;51.354;9.588;2022-12-07T03:00:34;94.03;;;21.37;;
5608;SDS011;2826;51.354;9.588;2022-12-07T03:03:10;126.40;;;20.07;;
5608;SDS011;2826;51.354;9.588;2022-12-07T03:05:44;181.00;;;24.27;;
5608;SDS011;2826;51.354;9.588;2022-12-07T03:08:23;159.63;;;21.97;;
5608;SDS011;2826;51.354;9.588;2022-12-07T03:10:57;257.40;;;23.47;;
5608;SDS011;2826;51.354;9.588;2022-12-07T03:13:28;165.30;;;21.00;;
5608;SDS011;2826;51.354;9.588;2022-12-07T03:16:02;197.23;;;23.00;;
5608;SDS011;2826;51.354;9.588;2022-12-07T03:18:35;304.23;;;24.63;;
5608;SDS011;2826;51.354;9.588;2022-12-07T03:21:08;269.00;;;23.60;;
5608;SDS011;2826;51.354;9.588;2022-12-07T03:23:42;240.77;;;21.27;;
5608;SDS011;2826;51.354;9.588;2022-12-07T03:26:13;130.77;;;18.10;;
5608;SDS011;2826;51.354;9.588;2022-12-07T03:28:44;96.40;;;19.13;;
5608;SDS011;2826;51.354;9.588;2022-12-07T03:31:18;292.43;;;21.33;;
5608;SDS011;2826;51.354;9.588;2022-12-07T03:33:52;206.93;;;21.57;;
5608;SDS011;2826;51.354;9.588;2022-12-07T03:36:28;443.93;;;25.67;;
5608;SDS011;2826;51.354;9.588;2022-12-07T03:39:03;488.27;;;25.07;;
5608;SDS011;2826;51.354;9.588;2022-12-07T03:41:39;598.70;;;24.50;;
5608;SDS011;2826;51.354;9.588;2022-12-07T03:44:06;47.50;;;12.30;;
5608;SDS011;2826;51.354;9.588;2022-12-07T03:46:36;34.00;;;13.57;;
5608;SDS011;2826;51.354;9.588;2022-12-07T03:49:11;36.00;;;15.93;;
5608;SDS011;2826;51.354;9.588;2022-12-07T03:51:46;83.47;;;16.10;;
5608;SDS011;2826;51.354;9.588;2022-12-07T03:54:23;463.53;;;23.90;;
5608;SDS011;2826;51.354;9.588;2022-12-07T03:56:54;467.43;;;23.63;;
5608;SDS011;2826;51.354;9.588;2022-12-07T03:59:23;718.53;;;28.43;;
5608;SDS011;2826;51.354;9.588;2022-12-07T04:01:53;729.40;;;29.57;;
5608;SDS011;2826;51.354;9.588;2022-12-07T04:04:21;794.43;;;35.43;;
5608;SDS011;2826;51.354;9.588;2022-12-07T04:06:48;831.93;;;35.27;;
5608;SDS011;2826;51.354;9.588;2022-12-07T04:09:15;925.13;;;37.00;;
5608;SDS011;2826;51.354;9.588;2022-12-07T04:11:42;599.40;;;32.03;;
5608;SDS011;2826;51.354;9.588;2022-12-07T04:14:09;745.43;;;31.80;;
5608;SDS011;2826;51.354;9.588;2022-12-07T04:16:45;755.50;;;30.53;;
5608;SDS011;2826;51.354;9.588;2022-12-07T04:19:13;706.60;;;35.07;;
5608;SDS011;2826;51.354;9.588;2022-12-07T04:21:40;639.40;;;34.33;;
5608;SDS011;2826;51.354;9.588;2022-12-07T04:24:07;308.47;;;21.50;;
5608;SDS011;2826;51.354;9.588;2022-12-07T04:26:34;51.00;;;15.37;;
5608;SDS011;2826;51.354;9.588;2022-12-07T04:29:01;94.73;;;16.60;;
5608;SDS011;2826;51.354;9.588;2022-12-07T04:31:28;41.90;;;17.20;;
5608;SDS011;2826;51.354;9.588;2022-12-07T04:33:54;46.17;;;16.53;;
5608;SDS011;2826;51.354;9.588;2022-12-07T04:36:23;38.80;;;16.60;;
5608;SDS011;2826;51.354;9.588;2022-12-07T04:38:52;32.47;;;14.67;;
5608;SDS011;2826;51.354;9.588;2022-12-07T04:41:19;31.77;;;13.83;;
5608;SDS011;2826;51.354;9.588;2022-12-07T04:43:52;48.07;;;18.30;;
5608;SDS011;2826;51.354;9.588;2022-12-07T04:46:20;35.17;;;16.07;;
5608;SDS011;2826;51.354;9.588;2022-12-07T04:48:47;46.43;;;18.13;;
5608;SDS011;2826;51.354;9.588;2022-12-07T04:51:15;38.90;;;16.47;;
5608;SDS011;2826;51.354;9.588;2022-12-07T04:53:47;39.20;;;16.73;;
5608;SDS011;2826;51.354;9.588;2022-12-07T04:56:14;39.03;;;16.90;;
5608;SDS011;2826;51.354;9.588;2022-12-07T04:58:41;36.90;;;16.63;;
5608;SDS011;2826;51.354;9.588;2022-12-07T05:01:08;46.47;;;17.47;;
5608;SDS011;2826;51.354;9.588;2022-12-07T05:03:35;34.97;;;16.33;;
5608;SDS011;2826;51.354;9.588;2022-12-07T05:06:02;28.93;;;13.07;;
5608;SDS011;2826;51.354;9.588;2022-12-07T05:08:31;35.53;;;15.10;;
5608;SDS011;2826;51.354;9.588;2022-12-07T05:10:59;29.53;;;13.90;;
5608;SDS011;2826;51.354;9.588;2022-12-07T05:13:26;29.63;;;12.07;;
5608;SDS011;2826;51.354;9.588;2022-12-07T05:15:55;33.80;;;15.47;;
5608;SDS011;2826;51.354;9.588;2022-12-07T05:18:28;37.00;;;14.53;;
5608;SDS011;2826;51.354;9.588;2022-12-07T05:20:55;30.13;;;11.90;;
5608;SDS011;2826;51.354;9.588;2022-12-07T05:23:22;28.63;;;15.43;;
5608;SDS011;2826;51.354;9.588;2022-12-07T05:25:49;34.60;;;15.03;;
5608;SDS011;2826;51.354;9.588;2022-12-07T05:28:17;38.60;;;15.03;;
5608;SDS011;2826;51.354;9.588;2022-12-07T05:30:44;38.43;;;14.80;;
5608;SDS011;2826;51.354;9.588;2022-12-07T05:33:12;29.17;;;11.23;;
5608;SDS011;2826;51.354;9.588;2022-12-07T05:35:38;30.17;;;14.77;;
5608;SDS011;2826;51.354;9.588;2022-12-07T05:38:05;25.50;;;12.10;;
5608;SDS011;2826;51.354;9.588;2022-12-07T05:40:32;31.67;;;14.17;;
5608;SDS011;2826;51.354;9.588;2022-12-07T05:42:59;29.67;;;13.07;;
5608;SDS011;2826;51.354;9.588;2022-12-07T05:45:27;33.10;;;13.97;;
5608;SDS011;2826;51.354;9.588;2022-12-07T05:47:54;27.17;;;9.83;;
5608;SDS011;2826;51.354;9.588;2022-12-07T05:50:21;26.00;;;12.80;;
5608;SDS011;2826;51.354;9.588;2022-12-07T05:52:59;30.97;;;13.27;;
5608;SDS011;2826;51.354;9.588;2022-12-07T05:55:26;36.93;;;13.90;;
5608;SDS011;2826;51.354;9.588;2022-12-07T05:57:53;35.80;;;12.67;;
5608;SDS011;2826;51.354;9.588;2022-12-07T06:00:38;27.40;;;12.17;;
5608;SDS011;2826;51.354;9.588;2022-12-07T06:03:05;28.43;;;12.77;;
5608;SDS011;2826;51.354;9.588;2022-12-07T06:05:32;24.90;;;11.50;;
5608;SDS011;2826;51.354;9.588;2022-12-07T06:07:59;31.10;;;11.53;;
5608;SDS011;2826;51.354;9.588;2022-12-07T06:10:26;20.20;;;9.00;;
5608;SDS011;2826;51.354;9.588;2022-12-07T06:12:53;31.90;;;11.50;;
5608;SDS011;2826;51.354;9.588;2022-12-07T06:15:19;28.53;;;10.60;;
5608;SDS011;2826;51.354;9.588;2022-12-07T06:17:47;23.00;;;12.60;;
5608;SDS011;2826;51.354;9.588;2022-12-07T06:20:13;25.00;;;11.93;;
5608;SDS011;2826;51.354;9.588;2022-12-07T06:22:40;24.57;;;11.10;;
5608;SDS011;2826;51.354;9.588;2022-12-07T06:25:07;24.67;;;11.37;;
5608;SDS011;2826;51.354;9.588;2022-12-07T06:27:35;28.00;;;11.07;;
5608;SDS011;2826;51.354;9.588;2022-12-07T06:30:02;24.90;;;11.97;;
5608;SDS011;2826;51.354;9.588;2022-12-07T06:32:31;23.63;;;11.60;;
5608;SDS011;2826;51.354;9.588;2022-12-07T06:35:00;23.87;;;10.60;;
5608;SDS011;2826;51.354;9.588;2022-12-07T06:37:27;19.33;;;9.67;;
5608;SDS011;2826;51.354;9.588;2022-12-07T06:39:54;26.73;;;10.90;;
5608;SDS011;2826;51.354;9.588;2022-12-07T06:42:21;20.63;;;9.00;;
5608;SDS011;2826;51.354;9.588;2022-12-07T06:44:48;23.67;;;10.33;;
5608;SDS011;2826;51.354;9.588;2022-12-07T06:47:15;25.53;;;10.90;;
5608;SDS011;2826;51.354;9.588;2022-12-07T06:49:42;17.93;;;10.57;;
5608;SDS011;2826;51.354;9.588;2022-12-07T06:52:10;23.90;;;11.80;;
5608;SDS011;2826;51.354;9.588;2022-12-07T06:54:37;17.73;;;9.80;;
5608;SDS011;2826;51.354;9.588;2022-12-07T06:57:03;20.50;;;9.40;;
5608;SDS011;2826;51.354;9.588;2022-12-07T06:59:30;27.23;;;10.23;;
5608;SDS011;2826;51.354;9.588;2022-12-07T07:01:57;29.50;;;10.10;;
5608;SDS011;2826;51.354;9.588;2022-12-07T07:04:24;24.40;;;10.77;;
5608;SDS011;2826;51.354;9.588;2022-12-07T07:06:50;15.13;;;8.00;;
5608;SDS011;2826;51.354;9.588;2022-12-07T07:09:19;26.53;;;9.60;;
5608;SDS011;2826;51.354;9.588;2022-12-07T07:11:45;17.80;;;8.97;;
5608;SDS011;2826;51.354;9.588;2022-12-07T07:14:12;18.90;;;9.50;;
5608;SDS011;2826;51.354;9.588;2022-12-07T07:16:44;23.93;;;7.90;;
5608;SDS011;2826;51.354;9.588;2022-12-07T07:19:11;29.83;;;9.63;;
5608;SDS011;2826;51.354;9.588;2022-12-07T07:21:37;26.13;;;8.83;;
5608;SDS011;2826;51.354;9.588;2022-12-07T07:24:04;21.43;;;8.30;;
5608;SDS011;2826;51.354;9.588;2022-12-07T07:26:33;15.13;;;8.03;;
5608;SDS011;2826;51.354;9.588;2022-12-07T07:29:00;21.00;;;8.03;;
5608;SDS011;2826;51.354;9.588;2022-12-07T07:31:27;18.17;;;8.93;;
5608;SDS011;2826;51.354;9.588;2022-12-07T07:33:54;19.73;;;8.60;;
5608;SDS011;2826;51.354;9.588;2022-12-07T07:36:20;18.33;;;8.30;;
5608;SDS011;2826;51.354;9.588;2022-12-07T07:38:47;19.33;;;7.90;;
5608;SDS011;2826;51.354;9.588;2022-12-07T07:41:14;17.70;;;9.20;;
5608;SDS011;2826;51.354;9.588;2022-12-07T07:43:42;20.20;;;7.47;;
5608;SDS011;2826;51.354;9.588;2022-12-07T07:46:09;18.20;;;7.90;;
5608;SDS011;2826;51.354;9.588;2022-12-07T07:48:36;22.97;;;9.20;;
5608;SDS011;2826;51.354;9.588;2022-12-07T07:51:04;32.90;;;11.53;;
5608;SDS011;2826;51.354;9.588;2022-12-07T07:53:32;25.83;;;10.37;;
5608;SDS011;2826;51.354;9.588;2022-12-07T07:55:59;30.50;;;13.27;;
5608;SDS011;2826;51.354;9.588;2022-12-07T07:58:27;25.33;;;10.70;;
5608;SDS011;2826;51.354;9.588;2022-12-07T08:00:55;19.17;;;7.70;;
5608;SDS011;2826;51.354;9.588;2022-12-07T08:03:22;19.67;;;8.87;;
5608;SDS011;2826;51.354;9.588;2022-12-07T08:05:49;24.10;;;10.07;;
5608;SDS011;2826;51.354;9.588;2022-12-07T08:08:16;20.40;;;6.70;;
5608;SDS011;2826;51.354;9.588;2022-12-07T08:10:43;13.20;;;7.70;;
5608;SDS011;2826;51.354;9.588;2022-12-07T08:13:10;16.97;;;8.73;;
5608;SDS011;2826;51.354;9.588;2022-12-07T08:15:38;16.47;;;8.07;;
5608;SDS011;2826;51.354;9.588;2022-12-07T08:18:07;17.97;;;8.10;;
5608;SDS011;2826;51.354;9.588;2022-12-07T08:20:35;16.03;;;8.50;;
5608;SDS011;2826;51.354;9.588;2022-12-07T08:23:03;19.93;;;9.17;;
5608;SDS011;2826;51.354;9.588;2022-12-07T08:25:30;19.73;;;8.03;;
5608;SDS011;2826;51.354;9.588;2022-12-07T08:27:57;18.07;;;7.80;;
5608;SDS011;2826;51.354;9.588;2022-12-07T08:30:26;16.30;;;8.27;;
5608;SDS011;2826;51.354;9.588;2022-12-07T08:32:53;15.97;;;9.70;;
5608;SDS011;2826;51.354;9.588;2022-12-07T08:35:21;20.83;;;8.80;;
5608;SDS011;2826;51.354;9.588;2022-12-07T08:37:48;16.53;;;7.83;;
5608;SDS011;2826;51.354;9.588;2022-12-07T08:40:15;17.80;;;8.40;;
5608;SDS011;2826;51.354;9.588;2022-12-07T08:42:44;16.80;;;7.13;;
5608;SDS011;2826;51.354;9.588;2022-12-07T08:45:15;25.73;;;7.40;;
5608;SDS011;2826;51.354;9.588;2022-12-07T08:47:44;17.50;;;7.30;;
5608;SDS011;2826;51.354;9.588;2022-12-07T08:50:15;23.53;;;6.50;;
5608;SDS011;2826;51.354;9.588;2022-12-07T08:52:44;10.53;;;5.03;;
5608;SDS011;2826;51.354;9.588;2022-12-07T08:55:16;12.93;;;6.10;;
5608;SDS011;2826;51.354;9.588;2022-12-07T08:57:43;15.67;;;6.90;;
5608;SDS011;2826;51.354;9.588;2022-12-07T09:00:10;16.53;;;6.20;;
5608;SDS011;2826;51.354;9.588;2022-12-07T09:02:38;14.30;;;6.87;;
5608;SDS011;2826;51.354;9.588;2022-12-07T09:05:05;19.73;;;5.80;;
5608;SDS011;2826;51.354;9.588;2022-12-07T09:07:32;19.90;;;6.57;;
5608;SDS011;2826;51.354;9.588;2022-12-07T09:10:02;15.03;;;6.60;;
5608;SDS011;2826;51.354;9.588;2022-12-07T09:12:30;21.53;;;7.77;;
5608;SDS011;2826;51.354;9.588;2022-12-07T09:14:57;11.23;;;7.03;;
5608;SDS011;2826;51.354;9.588;2022-12-07T09:17:26;9.70;;;6.10;;
5608;SDS011;2826;51.354;9.588;2022-12-07T09:19:53;18.37;;;6.53;;
5608;SDS011;2826;51.354;9.588;2022-12-07T09:22:20;19.00;;;6.70;;
5608;SDS011;2826;51.354;9.588;2022-12-07T09:24:47;14.47;;;6.23;;
5608;SDS011;2826;51.354;9.588;2022-12-07T09:27:15;15.03;;;5.60;;
5608;SDS011;2826;51.354;9.588;2022-12-07T09:29:43;21.80;;;6.30;;
5608;SDS011;2826;51.354;9.588;2022-12-07T09:32:09;18.30;;;6.67;;
5608;SDS011;2826;51.354;9.588;2022-12-07T09:34:36;13.00;;;6.53;;
5608;SDS011;2826;51.354;9.588;2022-12-07T09:37:03;21.23;;;5.37;;
5608;SDS011;2826;51.354;9.588;2022-12-07T09:39:30;16.80;;;7.37;;
5608;SDS011;2826;51.354;9.588;2022-12-07T09:41:57;10.57;;;5.50;;
5608;SDS011;2826;51.354;9.588;2022-12-07T09:44:26;16.37;;;5.53;;
5608;SDS011;2826;51.354;9.588;2022-12-07T09:46:54;12.40;;;6.10;;
5608;SDS011;2826;51.354;9.588;2022-12-07T09:49:22;15.80;;;6.10;;
5608;SDS011;2826;51.354;9.588;2022-12-07T09:51:59;17.10;;;7.70;;
5608;SDS011;2826;51.354;9.588;2022-12-07T09:54:28;11.60;;;5.67;;
5608;SDS011;2826;51.354;9.588;2022-12-07T09:56:55;13.33;;;4.50;;
5608;SDS011;2826;51.354;9.588;2022-12-07T09:59:23;15.80;;;7.40;;
5608;SDS011;2826;51.354;9.588;2022-12-07T10:01:51;8.57;;;5.10;;
5608;SDS011;2826;51.354;9.588;2022-12-07T10:04:18;15.43;;;5.90;;
5608;SDS011;2826;51.354;9.588;2022-12-07T10:06:48;10.17;;;4.40;;
5608;SDS011;2826;51.354;9.588;2022-12-07T10:09:16;6.90;;;4.00;;
5608;SDS011;2826;51.354;9.588;2022-12-07T10:11:57;16.73;;;4.80;;
5608;SDS011;2826;51.354;9.588;2022-12-07T10:14:25;12.27;;;4.77;;
5608;SDS011;2826;51.354;9.588;2022-12-07T10:16:55;14.83;;;4.20;;
5608;SDS011;2826;51.354;9.588;2022-12-07T10:19:24;11.70;;;5.37;;
5608;SDS011;2826;51.354;9.588;2022-12-07T10:22:00;7.93;;;4.40;;
5608;SDS011;2826;51.354;9.588;2022-12-07T10:24:28;11.83;;;5.00;;
5608;SDS011;2826;51.354;9.588;2022-12-07T10:26:55;12.37;;;6.60;;
5608;SDS011;2826;51.354;9.588;2022-12-07T10:29:24;13.57;;;5.60;;
5608;SDS011;2826;51.354;9.588;2022-12-07T10:31:56;12.37;;;5.47;;
5608;SDS011;2826;51.354;9.588;2022-12-07T10:34:26;14.27;;;4.90;;
5608;SDS011;2826;51.354;9.588;2022-12-07T10:37:06;9.53;;;4.47;;
5608;SDS011;2826;51.354;9.588;2022-12-07T10:39:40;16.77;;;5.83;;
5608;SDS011;2826;51.354;9.588;2022-12-07T10:42:15;12.17;;;5.87;;
5608;SDS011;2826;51.354;9.588;2022-12-07T10:44:43;20.47;;;7.07;;
5608;SDS011;2826;51.354;9.588;2022-12-07T10:47:18;9.53;;;4.40;;
5608;SDS011;2826;51.354;9.588;2022-12-07T10:50:10;21.57;;;7.00;;
5608;SDS011;2826;51.354;9.588;2022-12-07T10:52:48;16.77;;;5.83;;
5608;SDS011;2826;51.354;9.588;2022-12-07T10:55:32;10.30;;;5.20;;
5608;SDS011;2826;51.354;9.588;2022-12-07T10:58:18;23.03;;;9.27;;
5608;SDS011;2826;51.354;9.588;2022-12-07T11:00:59;12.40;;;4.40;;
5608;SDS011;2826;51.354;9.588;2022-12-07T11:03:47;6.67;;;2.27;;
5608;SDS011;2826;51.354;9.588;2022-12-07T11:06:24;7.23;;;3.83;;
5608;SDS011;2826;51.354;9.588;2022-12-07T11:08:59;7.83;;;3.30;;
5608;SDS011;2826;51.354;9.588;2022-12-07T11:11:51;4.77;;;2.80;;
5608;SDS011;2826;51.354;9.588;2022-12-07T11:14:28;3.73;;;2.67;;
5608;SDS011;2826;51.354;9.588;2022-12-07T11:17:04;9.00;;;3.80;;
5608;SDS011;2826;51.354;9.588;2022-12-07T11:19:43;9.37;;;3.10;;
5608;SDS011;2826;51.354;9.588;2022-12-07T11:22:23;12.33;;;3.97;;
5608;SDS011;2826;51.354;9.588;2022-12-07T11:24:57;9.33;;;3.77;;
5608;SDS011;2826;51.354;9.588;2022-12-07T11:27:37;10.27;;;4.30;;
5608;SDS011;2826;51.354;9.588;2022-12-07T11:30:13;11.13;;;4.70;;
5608;SDS011;2826;51.354;9.588;2022-12-07T11:32:59;6.73;;;4.10;;
5608;SDS011;2826;51.354;9.588;2022-12-07T11:35:39;10.20;;;4.47;;
5608;SDS011;2826;51.354;9.588;2022-12-07T11:38:16;14.30;;;4.33;;
5608;SDS011;2826;51.354;9.588;2022-12-07T11:40:45;6.83;;;4.10;;
5608;SDS011;2826;51.354;9.588;2022-12-07T11:43:18;8.17;;;3.07;;
5608;SDS011;2826;51.354;9.588;2022-12-07T11:45:52;8.50;;;4.27;;
5608;SDS011;2826;51.354;9.588;2022-12-07T11:48:28;7.30;;;3.87;;
5608;SDS011;2826;51.354;9.588;2022-12-07T11:51:01;15.80;;;4.07;;
5608;SDS011;2826;51.354;9.588;2022-12-07T11:53:32;8.53;;;4.20;;
5608;SDS011;2826;51.354;9.588;2022-12-07T11:56:06;10.10;;;5.20;;
5608;SDS011;2826;51.354;9.588;2022-12-07T11:58:43;9.87;;;4.40;;
5608;SDS011;2826;51.354;9.588;2022-12-07T12:01:17;5.50;;;3.73;;
5608;SDS011;2826;51.354;9.588;2022-12-07T12:04:05;9.53;;;3.17;;
5608;SDS011;2826;51.354;9.588;2022-12-07T12:06:44;7.47;;;3.40;;
5608;SDS011;2826;51.354;9.588;2022-12-07T12:09:12;12.80;;;4.43;;
5608;SDS011;2826;51.354;9.588;2022-12-07T12:11:49;9.03;;;3.80;;
5608;SDS011;2826;51.354;9.588;2022-12-07T12:14:37;4.83;;;2.67;;
5608;SDS011;2826;51.354;9.588;2022-12-07T12:20:06;5.73;;;2.67;;
5608;SDS011;2826;51.354;9.588;2022-12-07T12:22:46;7.40;;;4.13;;
5608;SDS011;2826;51.354;9.588;2022-12-07T12:25:19;18.60;;;3.80;;
5608;SDS011;2826;51.354;9.588;2022-12-07T12:27:49;7.03;;;3.20;;
5608;SDS011;2826;51.354;9.588;2022-12-07T12:30:30;2.13;;;1.93;;
5608;SDS011;2826;51.354;9.588;2022-12-07T12:33:04;5.63;;;3.27;;
5608;SDS011;2826;51.354;9.588;2022-12-07T12:35:38;22.70;;;5.80;;
5608;SDS011;2826;51.354;9.588;2022-12-07T12:38:29;7.50;;;3.60;;
5608;SDS011;2826;51.354;9.588;2022-12-07T12:41:00;5.17;;;2.90;;
5608;SDS011;2826;51.354;9.588;2022-12-07T12:43:43;4.63;;;2.43;;
5608;SDS011;2826;51.354;9.588;2022-12-07T12:46:36;7.77;;;3.40;;
5608;SDS011;2826;51.354;9.588;2022-12-07T12:52:01;6.73;;;2.33;;
5608;SDS011;2826;51.354;9.588;2022-12-07T12:55:19;4.90;;;2.90;;
5608;SDS011;2826;51.354;9.588;2022-12-07T13:07:13;6.47;;;3.50;;
5608;SDS011;2826;51.354;9.588;2022-12-07T13:10:22;5.73;;;2.50;;
5608;SDS011;2826;51.354;9.588;2022-12-07T13:12:58;6.70;;;2.77;;
5608;SDS011;2826;51.354;9.588;2022-12-07T13:15:33;10.47;;;2.70;;
5608;SDS011;2826;51.354;9.588;2022-12-07T13:21:01;6.40;;;2.63;;
5608;SDS011;2826;51.354;9.588;2022-12-07T13:23:55;6.83;;;2.40;;
5608;SDS011;2826;51.354;9.588;2022-12-07T13:26:33;6.40;;;2.63;;
5608;SDS011;2826;51.354;9.588;2022-12-07T13:29:05;13.93;;;2.80;;
5608;SDS011;2826;51.354;9.588;2022-12-07T13:31:37;5.93;;;2.37;;
5608;SDS011;2826;51.354;9.588;2022-12-07T13:36:56;6.93;;;2.33;;
5608;SDS011;2826;51.354;9.588;2022-12-07T13:39:25;5.37;;;2.60;;
5608;SDS011;2826;51.354;9.588;2022-12-07T13:41:53;4.93;;;3.00;;
5608;SDS011;2826;51.354;9.588;2022-12-07T13:44:22;4.63;;;2.97;;
5608;SDS011;2826;51.354;9.588;2022-12-07T13:46:55;7.53;;;3.47;;
5608;SDS011;2826;51.354;9.588;2022-12-07T13:49:29;7.63;;;3.00;;
5608;SDS011;2826;51.354;9.588;2022-12-07T13:52:07;8.40;;;3.37;;
5608;SDS011;2826;51.354;9.588;2022-12-07T13:54:47;5.67;;;3.30;;
5608;SDS011;2826;51.354;9.588;2022-12-07T13:57:15;6.30;;;3.40;;
5608;SDS011;2826;51.354;9.588;2022-12-07T13:59:42;10.30;;;3.90;;
5608;SDS011;2826;51.354;9.588;2022-12-07T14:02:17;16.97;;;3.67;;
5608;SDS011;2826;51.354;9.588;2022-12-07T14:04:45;4.27;;;3.47;;
5608;SDS011;2826;51.354;9.588;2022-12-07T14:07:22;5.97;;;3.40;;
5608;SDS011;2826;51.354;9.588;2022-12-07T14:09:56;11.40;;;3.63;;
5608;SDS011;2826;51.354;9.588;2022-12-07T14:12:25;8.07;;;3.97;;
5608;SDS011;2826;51.354;9.588;2022-12-07T14:14:53;6.67;;;2.90;;
5608;SDS011;2826;51.354;9.588;2022-12-07T14:17:22;13.40;;;3.60;;
5608;SDS011;2826;51.354;9.588;2022-12-07T14:19:50;11.80;;;4.03;;
5608;SDS011;2826;51.354;9.588;2022-12-07T14:22:22;12.00;;;4.67;;
5608;SDS011;2826;51.354;9.588;2022-12-07T14:24:57;16.57;;;4.37;;
5608;SDS011;2826;51.354;9.588;2022-12-07T14:27:31;7.40;;;4.23;;
5608;SDS011;2826;51.354;9.588;2022-12-07T14:30:01;6.23;;;3.10;;
5608;SDS011;2826;51.354;9.588;2022-12-07T14:32:30;15.50;;;4.67;;
5608;SDS011;2826;51.354;9.588;2022-12-07T14:34:58;11.83;;;4.20;;
5608;SDS011;2826;51.354;9.588;2022-12-07T14:37:27;16.53;;;4.00;;
5608;SDS011;2826;51.354;9.588;2022-12-07T14:39:55;11.23;;;4.73;;
5608;SDS011;2826;51.354;9.588;2022-12-07T14:42:23;9.60;;;3.80;;
5608;SDS011;2826;51.354;9.588;2022-12-07T14:44:54;8.53;;;4.30;;
5608;SDS011;2826;51.354;9.588;2022-12-07T14:47:21;14.57;;;6.40;;
5608;SDS011;2826;51.354;9.588;2022-12-07T14:49:49;19.70;;;4.83;;
5608;SDS011;2826;51.354;9.588;2022-12-07T14:52:17;12.23;;;4.20;;
5608;SDS011;2826;51.354;9.588;2022-12-07T14:54:47;10.33;;;3.30;;
5608;SDS011;2826;51.354;9.588;2022-12-07T14:57:13;10.63;;;4.13;;
5608;SDS011;2826;51.354;9.588;2022-12-07T14:59:41;9.30;;;6.07;;
5608;SDS011;2826;51.354;9.588;2022-12-07T15:02:09;13.50;;;4.23;;
5608;SDS011;2826;51.354;9.588;2022-12-07T15:04:37;15.23;;;5.60;;
5608;SDS011;2826;51.354;9.588;2022-12-07T15:07:06;16.47;;;4.33;;
5608;SDS011;2826;51.354;9.588;2022-12-07T15:09:44;17.97;;;5.80;;
5608;SDS011;2826;51.354;9.588;2022-12-07T15:12:11;9.57;;;4.60;;
5608;SDS011;2826;51.354;9.588;2022-12-07T15:14:38;13.63;;;4.37;;
5608;SDS011;2826;51.354;9.588;2022-12-07T15:17:07;7.60;;;4.30;;
5608;SDS011;2826;51.354;9.588;2022-12-07T15:19:37;8.27;;;3.60;;
5608;SDS011;2826;51.354;9.588;2022-12-07T15:22:03;12.47;;;3.80;;
5608;SDS011;2826;51.354;9.588;2022-12-07T15:24:30;7.83;;;3.20;;
5608;SDS011;2826;51.354;9.588;2022-12-07T15:26:57;11.30;;;3.20;;
5608;SDS011;2826;51.354;9.588;2022-12-07T15:29:24;7.90;;;4.13;;
5608;SDS011;2826;51.354;9.588;2022-12-07T15:31:51;15.23;;;5.20;;
5608;SDS011;2826;51.354;9.588;2022-12-07T15:34:20;20.03;;;4.27;;
5608;SDS011;2826;51.354;9.588;2022-12-07T15:36:47;8.77;;;4.10;;
5608;SDS011;2826;51.354;9.588;2022-12-07T15:39:14;10.63;;;4.63;;
5608;SDS011;2826;51.354;9.588;2022-12-07T15:41:41;7.20;;;4.67;;
5608;SDS011;2826;51.354;9.588;2022-12-07T15:44:08;9.70;;;3.93;;
5608;SDS011;2826;51.354;9.588;2022-12-07T15:46:54;9.13;;;5.10;;